createdAt,value
2023-04-26T00:01:58.982Z,12.00
2023-04-26T00:04:29.206Z,13.35
2023-04-26T00:06:59.154Z,16.55
2023-04-26T00:09:27.418Z,15.32
2023-04-26T00:11:56.328Z,17.60
2023-04-26T00:14:24.691Z,10.55
2023-04-26T00:16:53.923Z,10.35
2023-04-26T00:19:22.283Z,14.38
2023-04-26T00:21:51.079Z,12.73
2023-04-26T00:24:19.294Z,17.17
2023-04-26T00:26:48.257Z,15.35
2023-04-26T00:29:16.632Z,13.20
2023-04-26T00:31:45.502Z,15.18
2023-04-26T00:34:14.956Z,13.38
2023-04-26T00:36:43.666Z,16.73
2023-04-26T00:39:11.991Z,11.90
2023-04-26T00:41:41.154Z,18.10
2023-04-26T00:44:09.737Z,13.50
2023-04-26T00:46:38.572Z,11.80
2023-04-26T00:49:13.489Z,14.43
2023-04-26T00:51:45.957Z,15.18
2023-04-26T00:54:15.816Z,15.95
2023-04-26T00:56:46.081Z,17.35
2023-04-26T00:59:14.470Z,18.70
2023-04-26T01:01:44.297Z,14.52
2023-04-26T01:04:13.500Z,14.18
2023-04-26T01:06:42.614Z,12.23
2023-04-26T01:09:15.290Z,15.27
2023-04-26T01:11:45.046Z,14.40
2023-04-26T01:14:15.120Z,12.50
2023-04-26T01:17:09.738Z,13.30
2023-04-26T01:19:47.737Z,12.23
2023-04-26T01:22:16.851Z,14.55
2023-04-26T01:24:47.552Z,13.40
2023-04-26T01:27:17.825Z,10.75
2023-04-26T01:29:46.407Z,11.43
2023-04-26T01:32:15.083Z,11.93
2023-04-26T01:34:43.332Z,10.23
2023-04-26T01:37:14.411Z,13.85
2023-04-26T01:39:42.854Z,12.13
2023-04-26T01:42:14.461Z,9.55
2023-04-26T01:44:42.868Z,9.52
2023-04-26T01:47:11.583Z,9.85
2023-04-26T01:49:39.973Z,13.45
2023-04-26T01:52:08.718Z,10.77
2023-04-26T01:54:37.062Z,9.65
2023-04-26T01:57:05.872Z,9.02
2023-04-26T01:59:35.304Z,7.40
2023-04-26T02:02:03.943Z,6.15
2023-04-26T02:04:32.465Z,9.10
2023-04-26T02:07:01.770Z,6.65
2023-04-26T02:09:30.062Z,5.43
2023-04-26T02:11:59.220Z,9.10
2023-04-26T02:14:27.749Z,9.40
2023-04-26T02:16:57.290Z,9.30
2023-04-26T02:19:26.046Z,7.95
2023-04-26T02:21:58.028Z,8.48
2023-04-26T02:24:26.503Z,9.27
2023-04-26T02:26:55.251Z,8.98
2023-04-26T02:29:42.327Z,12.80
2023-04-26T02:32:14.542Z,8.73
2023-04-26T02:34:44.627Z,8.55
2023-04-26T02:37:13.414Z,7.35
2023-04-26T02:39:41.816Z,9.85
2023-04-26T02:42:13.292Z,7.78
2023-04-26T02:44:43.026Z,8.10
2023-04-26T02:47:13.007Z,8.13
2023-04-26T02:49:41.523Z,10.23
2023-04-26T02:52:10.140Z,7.45
2023-04-26T02:54:39.477Z,10.85
2023-04-26T02:57:08.823Z,7.65
2023-04-26T02:59:37.403Z,7.40
2023-04-26T03:02:06.282Z,10.25
2023-04-26T03:04:36.228Z,11.93
2023-04-26T03:07:05.131Z,7.22
2023-04-26T03:09:34.957Z,9.05
2023-04-26T03:12:04.301Z,10.32
2023-04-26T03:14:33.895Z,9.48
2023-04-26T03:17:03.521Z,7.30
2023-04-26T03:19:34.316Z,7.07
2023-04-26T03:22:05.213Z,10.07
2023-04-26T03:24:34.226Z,8.32
2023-04-26T03:27:02.926Z,11.20
2023-04-26T03:29:31.317Z,7.65
2023-04-26T03:32:01.650Z,7.60
2023-04-26T03:34:29.934Z,10.18
2023-04-26T03:36:59.841Z,8.95
2023-04-26T03:39:28.248Z,11.38
2023-04-26T03:41:56.833Z,12.30
2023-04-26T03:44:25.594Z,7.13
2023-04-26T03:46:56.432Z,13.27
2023-04-26T03:49:24.809Z,10.05
2023-04-26T03:51:53.541Z,10.60
2023-04-26T03:54:22.176Z,8.00
2023-04-26T03:56:51.729Z,9.30
2023-04-26T03:59:22.585Z,11.27
2023-04-26T04:01:51.450Z,8.10
2023-04-26T04:04:19.881Z,7.82
2023-04-26T04:06:50.986Z,10.80
2023-04-26T04:09:19.415Z,8.45
2023-04-26T04:11:48.183Z,10.35
2023-04-26T04:14:16.576Z,10.15
2023-04-26T04:16:45.239Z,9.05
2023-04-26T04:19:13.683Z,9.18
2023-04-26T04:21:43.453Z,9.20
2023-04-26T04:24:11.796Z,7.38
2023-04-26T04:26:42.784Z,12.25
2023-04-26T04:29:11.438Z,9.45
2023-04-26T04:31:40.795Z,9.63
2023-04-26T04:34:10.511Z,7.13
2023-04-26T04:36:42.156Z,7.05
2023-04-26T04:39:16.180Z,9.18
2023-04-26T04:41:49.480Z,6.47
2023-04-26T04:44:19.778Z,6.25
2023-04-26T04:46:49.071Z,6.07
2023-04-26T04:49:19.458Z,7.30
2023-04-26T04:51:49.616Z,9.55
2023-04-26T04:54:19.229Z,7.28
2023-04-26T04:56:49.126Z,6.00
2023-04-26T04:59:18.269Z,6.75
2023-04-26T05:01:48.460Z,8.48
2023-04-26T05:04:17.330Z,11.88
2023-04-26T05:06:46.553Z,8.88
2023-04-26T05:09:15.332Z,7.45
2023-04-26T05:11:44.500Z,8.45
2023-04-26T05:14:14.146Z,9.23
2023-04-26T05:16:44.860Z,7.47
2023-04-26T05:19:14.272Z,10.05
2023-04-26T05:21:42.975Z,7.35
2023-04-26T05:24:11.484Z,6.72
2023-04-26T05:26:40.742Z,9.00
2023-04-26T05:29:31.788Z,8.25
2023-04-26T05:34:42.435Z,8.20
2023-04-26T05:37:15.103Z,5.50
2023-04-26T05:39:44.261Z,6.13
2023-04-26T05:42:13.490Z,6.15
2023-04-26T05:44:42.313Z,7.13
2023-04-26T05:47:37.009Z,5.95
2023-04-26T05:50:14.233Z,9.00
2023-04-26T05:52:42.900Z,11.40
2023-04-26T05:55:38.241Z,3.97
2023-04-26T05:58:07.803Z,8.85
2023-04-26T06:00:37.729Z,5.15
2023-04-26T06:05:59.679Z,5.80
2023-04-26T06:08:33.424Z,6.38
2023-04-26T06:11:01.671Z,7.22
2023-04-26T06:13:36.102Z,8.10
2023-04-26T06:16:04.650Z,5.03
2023-04-26T06:18:33.470Z,5.30
2023-04-26T06:21:33.575Z,5.85
2023-04-26T06:24:00.121Z,6.97
2023-04-26T06:26:31.777Z,3.65
2023-04-26T06:29:01.680Z,4.35
2023-04-26T06:31:32.261Z,3.78
2023-04-26T06:34:11.431Z,2.42
2023-04-26T06:36:40.148Z,6.63
2023-04-26T06:39:08.854Z,4.78
2023-04-26T06:42:02.738Z,1.77
2023-04-26T06:44:54.485Z,7.45
2023-04-26T06:47:22.731Z,4.47
2023-04-26T06:49:56.850Z,8.00
2023-04-26T06:52:25.122Z,5.25
2023-04-26T06:54:56.916Z,8.25
2023-04-26T06:57:26.317Z,4.10
2023-04-26T06:59:55.136Z,3.25
2023-04-26T07:02:24.685Z,3.28
2023-04-26T07:04:54.845Z,4.15
2023-04-26T07:07:23.584Z,5.85
2023-04-26T07:09:53.240Z,6.40
2023-04-26T07:12:21.584Z,2.03
2023-04-26T07:14:53.093Z,4.93
2023-04-26T07:17:22.490Z,4.93
2023-04-26T07:19:51.564Z,10.80
2023-04-26T07:22:20.046Z,4.00
2023-04-26T07:24:49.197Z,5.63
2023-04-26T07:27:17.550Z,9.23
2023-04-26T07:29:46.116Z,5.47
2023-04-26T07:32:15.108Z,4.55
2023-04-26T07:34:44.088Z,4.22
2023-04-26T07:37:12.417Z,4.72
2023-04-26T07:39:41.279Z,8.93
2023-04-26T07:42:09.766Z,5.60
2023-04-26T07:44:38.342Z,6.63
2023-04-26T07:47:13.423Z,4.13
2023-04-26T07:49:42.299Z,11.05
2023-04-26T07:52:10.849Z,4.70
2023-04-26T07:54:40.521Z,5.15
2023-04-26T07:57:08.698Z,6.25
2023-04-26T07:59:37.553Z,4.57
2023-04-26T08:02:06.803Z,8.85
2023-04-26T08:04:35.795Z,4.80
2023-04-26T08:07:04.207Z,3.20
2023-04-26T08:09:32.904Z,4.80
2023-04-26T08:12:01.479Z,5.80
2023-04-26T08:14:31.051Z,3.67
2023-04-26T08:16:59.301Z,5.90
2023-04-26T08:19:31.003Z,3.90
2023-04-26T08:24:28.930Z,5.65
2023-04-26T08:26:59.187Z,3.38
2023-04-26T08:29:29.090Z,6.05
2023-04-26T08:31:57.483Z,7.40
2023-04-26T08:34:27.713Z,3.53
2023-04-26T08:36:56.241Z,6.18
2023-04-26T08:39:25.046Z,4.28
2023-04-26T08:41:55.501Z,5.53
2023-04-26T08:44:25.737Z,4.13
2023-04-26T08:47:04.861Z,4.82
2023-04-26T08:49:45.076Z,5.85
2023-04-26T08:52:16.143Z,3.63
2023-04-26T08:54:45.993Z,6.27
2023-04-26T08:57:15.652Z,8.63
2023-04-26T08:59:44.590Z,3.92
2023-04-26T09:02:19.278Z,5.50
2023-04-26T09:04:49.973Z,5.60
2023-04-26T09:07:27.201Z,7.35
2023-04-26T09:09:58.941Z,4.63
2023-04-26T09:12:27.340Z,6.38
2023-04-26T09:14:56.679Z,4.93
2023-04-26T09:17:33.089Z,2.40
2023-04-26T09:20:07.161Z,5.32
2023-04-26T09:22:38.997Z,6.60
2023-04-26T09:25:08.421Z,9.70
2023-04-26T09:27:39.175Z,19.13
2023-04-26T09:30:17.660Z,6.20
2023-04-26T09:32:55.218Z,3.22
2023-04-26T09:35:38.551Z,6.80
2023-04-26T09:38:14.835Z,13.20
2023-04-26T09:40:44.688Z,5.80
2023-04-26T09:43:14.745Z,6.20
2023-04-26T09:45:53.835Z,5.93
2023-04-26T09:48:26.187Z,4.20
2023-04-26T09:50:57.377Z,5.50
2023-04-26T09:53:46.079Z,4.10
2023-04-26T09:56:19.715Z,3.17
2023-04-26T09:58:47.898Z,3.70
2023-04-26T10:01:18.933Z,5.93
2023-04-26T10:03:47.729Z,3.90
2023-04-26T10:06:16.956Z,3.58
2023-04-26T10:08:45.675Z,5.82
2023-04-26T10:11:14.332Z,6.22
2023-04-26T10:13:43.224Z,7.03
2023-04-26T10:16:12.939Z,6.05
2023-04-26T10:18:41.525Z,5.07
2023-04-26T10:21:16.198Z,2.53
2023-04-26T10:23:45.254Z,2.13
2023-04-26T10:26:54.774Z,4.28
2023-04-26T10:29:24.918Z,5.90
2023-04-26T10:32:02.995Z,3.40
2023-04-26T10:34:35.343Z,4.43
2023-04-26T10:37:14.606Z,2.20
2023-04-26T10:39:44.983Z,4.43
2023-04-26T10:42:25.657Z,4.35
2023-04-26T10:44:59.169Z,3.13
2023-04-26T10:47:34.206Z,4.22
2023-04-26T10:50:06.481Z,3.83
2023-04-26T10:52:39.057Z,5.40
2023-04-26T10:55:08.123Z,4.50
2023-04-26T10:57:50.705Z,4.35
2023-04-26T11:00:31.924Z,3.25
2023-04-26T11:03:05.880Z,12.18
2023-04-26T11:05:42.669Z,8.07
2023-04-26T11:08:14.477Z,5.45
2023-04-26T11:10:43.865Z,1.25
2023-04-26T11:13:12.525Z,4.65
2023-04-26T11:15:40.814Z,2.83
2023-04-26T11:18:09.471Z,7.70
2023-04-26T11:20:38.010Z,3.53
2023-04-26T11:23:08.316Z,5.00
2023-04-26T11:25:40.145Z,8.88
2023-04-26T11:28:08.873Z,2.05
2023-04-26T11:30:37.122Z,3.88
2023-04-26T11:33:05.999Z,1.55
2023-04-26T11:35:37.247Z,4.50
2023-04-26T11:38:05.923Z,5.55
2023-04-26T11:40:36.689Z,6.75
2023-04-26T11:43:06.350Z,4.47
2023-04-26T11:45:36.534Z,3.97
2023-04-26T11:48:08.162Z,5.07
2023-04-26T11:50:38.327Z,4.53
2023-04-26T11:53:08.951Z,6.40
2023-04-26T11:55:37.534Z,8.60
2023-04-26T11:58:12.542Z,4.40
2023-04-26T12:01:01.039Z,3.33
2023-04-26T12:03:35.527Z,2.85
2023-04-26T12:06:04.745Z,7.35
2023-04-26T12:08:34.174Z,2.25
2023-04-26T12:11:03.506Z,3.53
2023-04-26T12:13:33.017Z,4.40
2023-04-26T12:18:38.655Z,4.03
2023-04-26T12:21:06.924Z,2.92
2023-04-26T12:23:40.904Z,2.15
2023-04-26T12:26:12.209Z,6.30
2023-04-26T12:28:41.465Z,3.35
2023-04-26T12:31:10.108Z,4.88
2023-04-26T12:33:38.765Z,8.10
2023-04-26T12:36:08.723Z,3.38
2023-04-26T12:38:38.054Z,3.33
2023-04-26T12:41:06.465Z,5.78
2023-04-26T12:43:35.099Z,5.22
2023-04-26T12:46:03.503Z,7.38
2023-04-26T12:48:32.336Z,5.28
2023-04-26T12:51:00.875Z,2.38
2023-04-26T12:53:29.890Z,2.22
2023-04-26T12:55:58.856Z,7.85
2023-04-26T12:58:28.793Z,4.72
2023-04-26T13:00:57.183Z,5.10
2023-04-26T13:03:25.820Z,1.27
2023-04-26T13:05:54.630Z,2.70
2023-04-26T13:08:24.700Z,2.55
2023-04-26T13:10:53.003Z,2.70
2023-04-26T13:13:26.335Z,5.22
2023-04-26T13:16:01.546Z,5.65
2023-04-26T13:18:30.648Z,3.38
2023-04-26T13:20:59.357Z,4.05
2023-04-26T13:23:28.885Z,3.55
2023-04-26T13:25:58.497Z,2.70
2023-04-26T13:28:27.342Z,2.47
2023-04-26T13:30:57.708Z,2.75
2023-04-26T13:33:26.577Z,3.53
2023-04-26T13:35:55.291Z,7.55
2023-04-26T13:38:26.706Z,5.07
2023-04-26T13:40:55.887Z,1.27
2023-04-26T13:43:25.261Z,5.78
2023-04-26T13:45:53.877Z,3.65
2023-04-26T13:48:22.669Z,6.30
2023-04-26T13:50:51.941Z,2.92
2023-04-26T13:53:21.370Z,4.18
2023-04-26T13:55:49.966Z,5.00
2023-04-26T13:58:23.717Z,2.42
2023-04-26T14:00:52.408Z,4.88
2023-04-26T14:03:22.859Z,3.80
2023-04-26T14:05:51.391Z,3.53
2023-04-26T14:08:24.231Z,4.38
2023-04-26T14:10:54.451Z,3.85
2023-04-26T14:13:23.071Z,16.23
2023-04-26T14:15:51.676Z,18.35
2023-04-26T14:18:21.858Z,8.60
2023-04-26T14:20:50.537Z,11.27
2023-04-26T14:23:19.185Z,3.50
2023-04-26T14:25:56.113Z,7.03
2023-04-26T14:29:02.759Z,2.20
2023-04-26T14:31:41.518Z,8.40
2023-04-26T14:34:42.791Z,3.15
2023-04-26T14:37:13.731Z,2.97
2023-04-26T14:42:51.676Z,6.32
2023-04-26T14:46:28.205Z,7.35
2023-04-26T14:49:54.380Z,8.25
2023-04-26T14:53:23.845Z,4.07
2023-04-26T15:00:19.734Z,3.00
2023-04-26T15:06:21.273Z,5.97
2023-04-26T15:09:29.053Z,7.75
2023-04-26T15:12:40.159Z,6.72
2023-04-26T15:18:25.270Z,5.65
2023-04-26T15:24:47.083Z,3.47
2023-04-26T15:27:54.073Z,4.95
2023-04-26T15:30:47.507Z,3.63
2023-04-26T15:36:14.268Z,2.60
2023-04-26T15:38:45.479Z,6.95
2023-04-26T15:41:18.718Z,2.80
2023-04-26T15:46:55.769Z,5.07
2023-04-26T15:50:07.879Z,4.68
2023-04-26T15:52:48.970Z,3.40
2023-04-26T15:56:32.208Z,4.35
2023-04-26T16:07:51.669Z,2.28
2023-04-26T16:11:26.851Z,5.07
2023-04-26T16:13:56.162Z,5.90
2023-04-26T16:16:26.818Z,10.98
2023-04-26T16:22:56.267Z,6.22
2023-04-26T16:30:48.957Z,5.07
2023-04-26T16:33:42.903Z,3.88
2023-04-26T16:36:15.577Z,3.13
2023-04-26T16:38:48.097Z,6.53
2023-04-26T16:41:40.046Z,7.00
2023-04-26T16:44:17.835Z,4.93
2023-04-26T16:47:05.405Z,2.17
2023-04-26T16:50:18.334Z,5.30
2023-04-26T16:52:53.532Z,9.98
2023-04-26T17:12:39.050Z,5.68
2023-04-26T17:18:14.989Z,6.30
2023-04-26T17:24:32.717Z,3.95
2023-04-26T17:27:29.021Z,5.70
2023-04-26T17:33:26.133Z,10.55
2023-04-26T17:36:26.723Z,8.00
2023-04-26T17:38:55.068Z,14.75
2023-04-26T17:41:25.015Z,7.53
2023-04-26T17:43:57.158Z,9.63
2023-04-26T17:46:26.076Z,8.13
2023-04-26T17:48:55.577Z,8.68
2023-04-26T17:51:31.675Z,8.88
2023-04-26T17:54:00.186Z,8.07
2023-04-26T17:56:29.175Z,9.30
2023-04-26T17:59:03.465Z,11.88
2023-04-26T18:01:32.692Z,14.77
2023-04-26T18:04:01.420Z,12.63
2023-04-26T18:06:30.047Z,14.43
2023-04-26T18:08:58.244Z,16.27
2023-04-26T18:11:28.021Z,21.30
2023-04-26T18:13:56.256Z,19.38
2023-04-26T18:16:24.893Z,10.52
2023-04-26T18:18:53.129Z,9.95
2023-04-26T18:21:21.863Z,12.40
2023-04-26T18:23:50.040Z,16.52
2023-04-26T18:26:18.928Z,14.93
2023-04-26T18:28:47.290Z,12.98
2023-04-26T18:31:16.258Z,9.18
2023-04-26T18:33:48.177Z,12.00
2023-04-26T18:36:17.732Z,11.88
2023-04-26T18:38:46.076Z,12.25
2023-04-26T18:41:14.570Z,11.18
2023-04-26T18:43:42.911Z,10.32
2023-04-26T18:46:11.552Z,15.88
2023-04-26T18:48:39.785Z,7.45
2023-04-26T18:51:08.448Z,8.02
2023-04-26T18:53:36.683Z,12.32
2023-04-26T18:56:05.558Z,7.90
2023-04-26T18:58:34.577Z,7.38
2023-04-26T19:01:03.278Z,11.88
2023-04-26T19:03:31.790Z,12.38
2023-04-26T19:06:00.761Z,13.30
2023-04-26T19:08:32.027Z,16.23
2023-04-26T19:11:12.419Z,28.80
2023-04-26T19:13:41.834Z,22.23
2023-04-26T19:16:11.429Z,23.67
2023-04-26T19:18:40.961Z,19.48
2023-04-26T19:21:10.592Z,22.73
2023-04-26T19:23:39.005Z,20.95
2023-04-26T19:26:09.570Z,24.55
2023-04-26T19:28:38.677Z,18.92
2023-04-26T19:31:07.406Z,27.73
2023-04-26T19:33:37.083Z,30.00
2023-04-26T19:36:06.186Z,25.30
2023-04-26T19:38:34.535Z,21.48
2023-04-26T19:41:03.234Z,15.75
2023-04-26T19:43:31.822Z,19.85
2023-04-26T19:46:26.054Z,22.63
2023-04-26T19:49:01.387Z,29.83
2023-04-26T19:51:32.524Z,28.88
2023-04-26T19:54:01.021Z,32.05
2023-04-26T19:56:56.225Z,31.48
2023-04-26T19:59:27.060Z,34.15
2023-04-26T20:01:56.076Z,33.55
2023-04-26T20:04:51.007Z,46.42
2023-04-26T20:07:19.731Z,49.28
2023-04-26T20:09:50.044Z,39.83
2023-04-26T20:12:18.649Z,38.78
2023-04-26T20:14:47.776Z,35.00
2023-04-26T20:17:18.377Z,55.00
2023-04-26T20:19:46.873Z,48.50
2023-04-26T20:22:15.886Z,41.13
2023-04-26T20:24:44.409Z,45.63
2023-04-26T20:27:13.249Z,52.78
2023-04-26T20:29:41.741Z,55.22
2023-04-26T20:32:10.316Z,48.95
2023-04-26T20:34:38.525Z,47.85
2023-04-26T20:37:07.628Z,50.42
2023-04-26T20:39:36.204Z,45.42
2023-04-26T20:42:05.521Z,32.58
2023-04-26T20:47:26.603Z,25.58
2023-04-26T20:49:54.937Z,30.25
2023-04-26T20:52:23.495Z,47.05
2023-04-26T20:55:17.271Z,38.45
2023-04-26T21:01:17.935Z,44.28
2023-04-26T21:04:39.670Z,41.50
2023-04-26T21:07:34.040Z,71.32
2023-04-26T21:10:02.692Z,88.78
2023-04-26T21:12:31.680Z,77.50
2023-04-26T21:15:00.571Z,61.42
2023-04-26T21:17:32.489Z,75.82
2023-04-26T21:20:04.553Z,65.60
2023-04-26T21:22:33.151Z,59.75
2023-04-26T21:25:01.619Z,51.22
2023-04-26T21:27:30.740Z,54.30
2023-04-26T21:30:00.087Z,54.65
2023-04-26T21:32:29.149Z,51.58
2023-04-26T21:34:59.227Z,50.55
2023-04-26T21:41:39.620Z,63.45
2023-04-26T21:44:07.823Z,65.80
2023-04-26T21:46:36.611Z,53.65
2023-04-26T21:49:05.950Z,58.13
2023-04-26T21:51:34.856Z,51.15
2023-04-26T21:54:03.175Z,41.15
2023-04-26T21:56:32.120Z,39.67
2023-04-26T21:59:00.584Z,30.23
2023-04-26T22:01:29.302Z,29.05
2023-04-26T22:03:57.649Z,30.48
2023-04-26T22:06:27.681Z,32.67
2023-04-26T22:08:56.333Z,31.98
2023-04-26T22:11:24.979Z,32.25
2023-04-26T22:13:53.303Z,29.52
2023-04-26T22:16:22.234Z,31.92
2023-04-26T22:18:50.783Z,38.78
2023-04-26T22:21:19.818Z,51.17
2023-04-26T22:23:48.298Z,52.17
2023-04-26T22:26:16.833Z,45.72
2023-04-26T22:28:45.096Z,48.72
2023-04-26T22:31:13.826Z,61.05
2023-04-26T22:33:42.109Z,61.05
2023-04-26T22:36:11.139Z,62.38
2023-04-26T22:38:39.885Z,62.42
2023-04-26T22:41:08.474Z,66.97
2023-04-26T22:43:36.779Z,60.58
2023-04-26T22:46:05.366Z,58.70
2023-04-26T22:48:33.616Z,66.88
2023-04-26T22:51:04.986Z,59.72
2023-04-26T22:53:33.313Z,48.47
2023-04-26T22:56:02.032Z,45.15
2023-04-26T22:58:30.327Z,51.95
2023-04-26T23:00:59.104Z,52.17
2023-04-26T23:03:27.916Z,49.00
2023-04-26T23:05:57.460Z,47.58
2023-04-26T23:08:25.792Z,48.20
2023-04-26T23:10:54.453Z,35.80
2023-04-26T23:13:25.760Z,30.55
2023-04-26T23:15:54.296Z,33.83
2023-04-26T23:18:25.136Z,38.50
2023-04-26T23:20:53.845Z,34.22
2023-04-26T23:23:22.243Z,39.97
2023-04-26T23:25:50.948Z,32.22
2023-04-26T23:28:19.230Z,26.70
2023-04-26T23:30:48.911Z,26.73
2023-04-26T23:33:17.667Z,28.10
2023-04-26T23:35:47.371Z,29.17
2023-04-26T23:38:15.725Z,42.80
2023-04-26T23:40:44.286Z,44.50
2023-04-26T23:43:14.070Z,41.90
2023-04-26T23:45:47.439Z,40.42
2023-04-26T23:48:17.725Z,35.15
2023-04-26T23:50:46.984Z,48.53
2023-04-26T23:53:15.259Z,48.08
2023-04-26T23:55:44.163Z,48.25
2023-04-26T23:58:12.429Z,88.13
